createdAt,value
2018-06-04T00:01:00.355Z,101191.00
2018-06-04T00:06:03.558Z,101194.48
2018-06-04T00:11:06.669Z,101190.31
2018-06-04T00:16:09.769Z,101183.12
2018-06-04T00:21:12.902Z,101181.78
2018-06-04T00:26:16.382Z,101181.27
2018-06-04T00:31:19.587Z,101182.53
2018-06-04T00:36:23.002Z,101173.27
2018-06-04T00:41:26.155Z,101162.27
2018-06-04T00:46:29.257Z,101162.57
2018-06-04T00:51:32.353Z,101171.07
2018-06-04T00:56:35.494Z,101168.94
2018-06-04T01:01:38.608Z,101166.57
2018-06-04T01:06:41.720Z,101173.55
2018-06-04T01:11:45.051Z,101179.98
2018-06-04T01:16:48.598Z,101172.46
2018-06-04T01:21:51.834Z,101168.70
2018-06-04T01:26:55.215Z,101164.78
2018-06-04T01:31:58.383Z,101165.05
2018-06-04T01:37:01.532Z,101158.30
2018-06-04T01:42:04.899Z,101161.55
2018-06-04T01:47:09.053Z,101154.20
2018-06-04T01:52:12.212Z,101151.00
2018-06-04T01:57:15.519Z,101148.87
2018-06-04T02:02:18.946Z,101144.83
2018-06-04T02:07:22.503Z,101142.36
2018-06-04T02:12:25.629Z,101139.51
2018-06-04T02:17:28.881Z,101137.23
2018-06-04T02:22:32.469Z,101137.12
2018-06-04T02:27:35.581Z,101133.88
2018-06-04T02:32:38.740Z,101131.87
2018-06-04T02:37:43.180Z,101125.91
2018-06-04T02:42:46.532Z,101127.25
2018-06-04T02:47:50.350Z,101129.98
2018-06-04T02:52:53.806Z,101122.95
2018-06-04T02:57:56.956Z,101119.47
2018-06-04T03:03:00.213Z,101118.92
2018-06-04T03:08:03.396Z,101112.15
2018-06-04T03:13:06.503Z,101114.45
2018-06-04T03:18:09.633Z,101116.62
2018-06-04T03:23:12.853Z,101114.13
2018-06-04T03:28:16.114Z,101113.34
2018-06-04T03:33:19.472Z,101110.25
2018-06-04T03:38:22.760Z,101108.05
2018-06-04T03:43:25.905Z,101099.01
2018-06-04T03:48:29.095Z,101095.40
2018-06-04T03:53:32.207Z,101093.24
2018-06-04T03:58:35.317Z,101092.77
2018-06-04T04:03:38.425Z,101094.09
2018-06-04T04:08:41.527Z,101088.91
2018-06-04T04:13:45.828Z,101087.76
2018-06-04T04:18:49.257Z,101092.42
2018-06-04T04:23:52.731Z,101097.60
2018-06-04T04:28:55.878Z,101089.20
2018-06-04T04:33:59.082Z,101088.98
2018-06-04T04:39:02.336Z,101096.12
2018-06-04T04:44:05.531Z,101090.30
2018-06-04T04:49:08.671Z,101103.11
2018-06-04T04:54:11.805Z,101098.84
2018-06-04T04:59:16.185Z,101085.27
2018-06-04T05:04:19.579Z,101080.69
2018-06-04T05:09:22.749Z,101081.48
2018-06-04T05:14:26.532Z,101077.02
2018-06-04T05:19:29.665Z,101063.27
2018-06-04T05:24:33.066Z,101064.86
2018-06-04T05:29:36.094Z,101062.17
2018-06-04T05:34:39.249Z,101063.89
2018-06-04T05:39:42.977Z,101060.88
2018-06-04T05:44:46.278Z,101050.59
2018-06-04T05:49:49.565Z,101046.55
2018-06-04T05:54:53.063Z,101050.59
2018-06-04T05:59:56.292Z,101046.85
2018-06-04T06:04:59.422Z,101051.12
2018-06-04T06:10:02.582Z,101041.32
2018-06-04T06:15:05.748Z,101040.92
2018-06-04T06:20:08.908Z,101025.59
2018-06-04T06:25:12.053Z,101037.30
2018-06-04T06:30:15.332Z,101023.95
2018-06-04T06:35:18.696Z,101024.33
2018-06-04T06:40:22.155Z,101018.54
2018-06-04T06:45:25.285Z,101016.63
2018-06-04T06:50:28.484Z,101016.08
2018-06-04T06:55:31.617Z,101015.16
2018-06-04T07:00:34.713Z,101009.33
2018-06-04T07:05:37.870Z,101004.14
2018-06-04T07:10:41.016Z,100995.61
2018-06-04T07:15:44.332Z,101002.48
2018-06-04T07:20:47.746Z,100998.93
2018-06-04T07:25:50.920Z,100992.46
2018-06-04T07:30:54.136Z,100989.38
2018-06-04T07:36:06.842Z,100986.63
2018-06-04T07:41:09.990Z,100992.42
2018-06-04T07:46:13.159Z,100984.16
2018-06-04T07:51:16.467Z,100987.92
2018-06-04T07:56:19.717Z,100975.91
2018-06-04T08:01:23.110Z,100972.23
2018-06-04T08:06:26.839Z,100974.95
2018-06-04T08:11:30.025Z,100965.50
2018-06-04T08:16:33.260Z,100963.53
2018-06-04T08:21:36.341Z,100961.48
2018-06-04T08:26:39.506Z,100965.80
2018-06-04T08:31:42.771Z,100948.95
2018-06-04T08:36:46.055Z,100954.14
2018-06-04T08:41:52.873Z,100945.36
2018-06-04T08:46:56.879Z,100946.45
2018-06-04T08:52:00.329Z,100941.50
2018-06-04T08:57:03.444Z,100946.69
2018-06-04T09:02:06.588Z,100930.11
2018-06-04T09:07:09.782Z,100936.44
2018-06-04T09:12:12.934Z,100925.58
2018-06-04T09:17:16.145Z,100916.30
2018-06-04T09:22:19.336Z,100926.80
2018-06-04T09:27:22.595Z,100924.70
2018-06-04T09:32:25.761Z,100919.61
2018-06-04T09:37:28.893Z,100918.92
2018-06-04T09:42:32.051Z,100915.17
2018-06-04T09:47:35.154Z,100908.07
2018-06-04T09:52:38.254Z,100914.76
2018-06-04T09:57:41.364Z,100916.42
2018-06-04T10:02:44.572Z,100909.37
2018-06-04T10:07:47.905Z,100906.07
2018-06-04T10:12:51.232Z,100895.43
2018-06-04T10:17:54.461Z,100896.84
2018-06-04T10:22:57.593Z,100892.12
2018-06-04T10:28:00.671Z,100875.84
2018-06-04T10:33:04.017Z,100882.20
2018-06-04T10:38:07.125Z,100886.09
2018-06-04T10:43:10.317Z,100879.36
2018-06-04T10:48:13.480Z,100874.06
2018-06-04T10:53:16.793Z,100862.48
2018-06-04T10:58:20.016Z,100862.08
2018-06-04T11:03:23.329Z,100852.60
2018-06-04T11:08:26.428Z,100840.46
2018-06-04T11:13:29.512Z,100835.48
2018-06-04T11:18:32.710Z,100833.30
2018-06-04T11:23:35.808Z,100840.17
2018-06-04T11:28:39.041Z,100831.42
2018-06-04T11:33:42.361Z,100828.65
2018-06-04T11:38:45.756Z,100836.68
2018-06-04T11:43:48.954Z,100832.58
2018-06-04T11:48:52.331Z,100825.16
2018-06-04T11:53:55.459Z,100829.30
2018-06-04T11:58:58.842Z,100826.80
2018-06-04T12:04:01.942Z,100816.29
2018-06-04T12:09:06.989Z,100817.34
2018-06-04T12:14:10.131Z,100818.10
2018-06-04T12:19:13.340Z,100807.08
2018-06-04T12:24:16.656Z,100804.59
2018-06-04T12:29:19.892Z,100794.53
2018-06-04T12:34:23.137Z,100803.88
2018-06-04T12:39:26.317Z,100802.91
2018-06-04T12:44:29.500Z,100798.98
2018-06-04T12:49:32.859Z,100780.27
2018-06-04T12:54:36.691Z,100775.53
2018-06-04T12:59:40.783Z,100777.84
2018-06-04T13:04:44.085Z,100768.47
2018-06-04T13:09:47.339Z,100767.59
2018-06-04T13:14:50.677Z,100755.05
2018-06-04T13:19:53.922Z,100754.02
2018-06-04T13:24:57.037Z,100739.14
2018-06-04T13:30:00.167Z,100736.92
2018-06-04T13:35:03.359Z,100727.27
2018-06-04T13:40:06.481Z,100719.59
2018-06-04T13:45:09.582Z,100712.59
2018-06-04T13:50:12.751Z,100705.16
2018-06-04T13:55:15.963Z,100694.42
2018-06-04T14:00:19.457Z,100691.95
2018-06-04T14:05:22.644Z,100691.16
2018-06-04T14:10:25.784Z,100678.26
2018-06-04T14:15:28.980Z,100679.19
2018-06-04T14:20:32.096Z,100680.61
2018-06-04T14:25:35.211Z,100682.41
2018-06-04T14:30:39.275Z,100668.13
2018-06-04T14:35:42.419Z,100665.26
2018-06-04T14:40:45.782Z,100663.17
2018-06-04T14:45:50.036Z,100660.11
2018-06-04T14:50:53.432Z,100644.27
2018-06-04T14:55:56.604Z,100645.27
2018-06-04T15:01:00.718Z,100641.38
2018-06-04T15:06:03.887Z,100638.48
2018-06-04T15:11:06.987Z,100627.28
2018-06-04T15:16:10.170Z,100629.75
2018-06-04T15:21:13.407Z,100620.59
2018-06-04T15:26:16.703Z,100618.90
2018-06-04T15:31:19.949Z,100607.07
2018-06-04T15:36:23.372Z,100619.45
2018-06-04T15:41:26.701Z,100611.55
2018-06-04T15:46:29.857Z,100612.30
2018-06-04T15:51:33.693Z,100610.24
2018-06-04T15:56:36.857Z,100606.13
2018-06-04T16:01:40.000Z,100594.56
2018-06-04T16:06:43.254Z,100592.90
2018-06-04T16:11:46.574Z,100580.38
2018-06-04T16:16:49.984Z,100587.45
2018-06-04T16:21:53.559Z,100594.14
2018-06-04T16:26:56.705Z,100583.49
2018-06-04T16:31:59.929Z,100576.73
2018-06-04T16:37:03.155Z,100571.72
2018-06-04T16:42:06.261Z,100569.84
2018-06-04T16:47:09.366Z,100577.81
2018-06-04T16:52:12.973Z,100568.59
2018-06-04T16:57:17.103Z,100570.14
2018-06-04T17:02:20.723Z,100564.47
2018-06-04T17:07:25.545Z,100562.67
2018-06-04T17:12:28.790Z,100552.86
2018-06-04T17:17:32.525Z,100555.30
2018-06-04T17:22:36.022Z,100556.41
2018-06-04T17:27:39.220Z,100549.31
2018-06-04T17:32:42.407Z,100557.30
2018-06-04T17:37:45.852Z,100557.61
2018-06-04T17:42:49.441Z,100550.94
2018-06-04T17:47:53.507Z,100555.31
2018-06-04T17:52:56.686Z,100557.23
2018-06-04T17:57:59.934Z,100552.50
2018-06-04T18:03:04.936Z,100555.77
2018-06-04T18:08:08.136Z,100560.19
2018-06-04T18:13:11.408Z,100552.81
2018-06-04T18:18:15.300Z,100554.14
2018-06-04T18:23:18.923Z,100546.19
2018-06-04T18:28:22.350Z,100544.23
2018-06-04T18:33:28.570Z,100545.47
2018-06-04T18:38:32.436Z,100548.41
2018-06-04T18:43:35.940Z,100555.87
2018-06-04T18:48:39.089Z,100561.45
2018-06-04T18:53:56.840Z,100561.92
2018-06-04T18:59:03.545Z,100569.27
2018-06-04T19:04:10.808Z,100570.33
2018-06-04T19:09:16.502Z,100569.67
2018-06-04T19:14:19.705Z,100573.17
2018-06-04T19:19:22.839Z,100579.78
2018-06-04T19:24:29.691Z,100584.30
2018-06-04T19:29:32.922Z,100596.98
2018-06-04T19:34:39.929Z,100604.17
2018-06-04T19:39:43.591Z,100595.17
2018-06-04T19:44:46.952Z,100612.39
2018-06-04T19:49:50.852Z,100612.84
2018-06-04T19:54:55.167Z,100618.13
2018-06-04T19:59:58.475Z,100629.58
2018-06-04T20:05:01.658Z,100638.30
2018-06-04T20:10:04.941Z,100643.66
2018-06-04T20:15:08.015Z,100649.72
2018-06-04T20:20:11.280Z,100640.95
2018-06-04T20:25:14.599Z,100652.48
2018-06-04T20:30:17.948Z,100661.91
2018-06-04T20:35:21.240Z,100663.83
2018-06-04T20:40:24.546Z,100674.06
2018-06-04T20:45:27.655Z,100684.72
2018-06-04T20:50:30.754Z,100686.96
2018-06-04T20:55:33.872Z,100690.54
2018-06-04T21:00:37.053Z,100692.56
2018-06-04T21:05:41.326Z,100687.44
2018-06-04T21:10:44.680Z,100690.78
2018-06-04T21:15:47.875Z,100696.75
2018-06-04T21:20:51.092Z,100696.39
2018-06-04T21:25:54.313Z,100702.59
2018-06-04T21:30:57.465Z,100714.48
2018-06-04T21:36:00.563Z,100711.14
2018-06-04T21:41:03.753Z,100714.98
2018-06-04T21:46:06.875Z,100718.66
2018-06-04T21:51:10.062Z,100727.39
2018-06-04T21:56:13.188Z,100729.41
2018-06-04T22:01:16.432Z,100728.04
2018-06-04T22:06:19.768Z,100729.59
2018-06-04T22:11:23.763Z,100740.20
2018-06-04T22:16:29.545Z,100743.85
2018-06-04T22:21:32.694Z,100745.00
2018-06-04T22:26:35.852Z,100745.93
2018-06-04T22:31:39.444Z,100749.06
2018-06-04T22:36:42.833Z,100752.11
2018-06-04T22:41:49.350Z,100762.06
2018-06-04T22:46:52.516Z,100762.37
2018-06-04T22:51:55.696Z,100765.80
2018-06-04T22:56:58.837Z,100760.55
2018-06-04T23:02:01.983Z,100769.72
2018-06-04T23:07:05.267Z,100764.01
2018-06-04T23:12:09.035Z,100766.78
2018-06-04T23:17:12.375Z,100769.70
2018-06-04T23:22:15.627Z,100772.80
2018-06-04T23:27:18.763Z,100768.11
2018-06-04T23:32:22.735Z,100778.20
2018-06-04T23:37:25.873Z,100783.77
2018-06-04T23:42:29.091Z,100781.03
2018-06-04T23:47:32.220Z,100785.79
2018-06-04T23:52:36.007Z,100788.17
2018-06-04T23:57:39.468Z,100791.06
